Latest Weather Observations for Perth

IDW60801

Issued at 8:02 am WST Saturday 7 March 2015 (issued every 30 minutes, with the page automatically refreshed every 10 minutes)

About weather observations | Map of weather stations | Latest weather observations for WA | Other Formats
Station Details ID: 009225 Name: PERTH METRO Lat: -31.92 Lon: 115.87 Height: 24.9 m
Data from the previous 72 hours. | See also: Recent months at Perth
Date/Time
WST
Temp
°C
App
Temp
°C
Dew
Point
Rel
Hum
%
Delta-T
°C
Wind Press
QNH
hPa
Press
MSL
hPa
Rain
since 9 am
mm
Dir
 
Spd
km/h
Gust
km/h
Spd
kts
Gust
kts
07/08:00am 20.8 18.6 12.0 57 4.9 E 15 32 8 17 1018.8 1018.7 0.0
07/07:30am 20.5 18.7 12.0 58 4.7 E 13 22 7 12 1018.8 1018.7 0.0
07/07:00am 19.4 17.5 11.9 62 4.1 ENE 13 20 7 11 1018.8 1018.7 0.0
07/06:30am 19.3 18.2 11.8 62 4.1 E 9 17 5 9 1018.3 1018.2 0.0
07/06:00am 19.6 18.5 11.9 61 4.3 E 9 19 5 10 1017.9 1017.8 0.0
07/05:30am 20.0 19.5 12.0 60 4.5 E 6 17 3 9 1017.8 1017.7 0.0
07/05:00am 20.1 19.0 12.1 60 4.5 NE 9 15 5 8 1017.4 1017.3 0.0
07/04:30am 19.9 19.4 12.2 61 4.3 ESE 6 13 3 7 1017.5 1017.4 0.0
07/04:00am 20.5 19.6 12.5 60 4.5 E 9 15 5 8 1017.3 1017.2 0.0
07/03:30am 20.5 19.9 12.2 59 4.7 ENE 7 15 4 8 1017.2 1017.1 0.0
07/03:00am 20.3 19.7 11.8 58 4.7 E 6 13 3 7 1017.3 1017.2 0.0
07/02:30am 20.1 19.2 10.5 54 5.2 NE 6 7 3 4 1017.4 1017.3 0.0
07/02:00am 20.4 19.4 10.2 52 5.5 E 6 9 3 5 1017.5 1017.4 0.0
07/01:30am 18.3 18.9 15.2 82 1.8 ENE 6 11 3 6 1017.4 1017.3 0.0
07/01:00am 19.5 20.9 14.5 73 2.9 CALM 0 4 0 2 1017.1 1017.0 0.0
07/12:30am 20.4 21.2 14.7 70 3.3 SSE 4 7 2 4 1016.9 1016.8 0.0
07/12:00am 20.8 21.9 14.7 68 3.6 SSE 2 7 1 4 1017.1 1017.0 0.0
 
Date/Time
WST
Temp
°C
App
Temp
°C
Dew
Point
Rel
Hum
%
Delta-T
°C
Wind Press
QNH
hPa
Press
MSL
hPa
Rain
since 9 am
mm
Dir
 
Spd
km/h
Gust
km/h
Spd
kts
Gust
kts
06/11:30pm 21.9 22.2 15.0 65 4.1 S 7 13 4 7 1017.1 1017.0 0.0
06/11:00pm 21.8 22.6 14.7 64 4.2 SSE 4 7 2 4 1017.1 1017.0 0.0
06/10:30pm 22.6 23.1 15.0 62 4.5 S 6 9 3 5 1017.1 1017.0 0.0
06/10:00pm 23.0 23.3 15.1 61 4.7 S 7 11 4 6 1017.3 1017.2 0.0
06/09:30pm 23.4 23.4 15.2 60 4.9 S 9 15 5 8 1017.4 1017.3 0.0
06/09:00pm 23.6 23.3 15.4 60 4.9 S 11 19 6 10 1017.5 1017.4 0.0
06/08:30pm 23.5 23.8 16.1 63 4.5 SSW 9 17 5 9 1017.5 1017.4 0.0
06/08:00pm 23.7 24.1 16.2 63 4.6 SSW 9 17 5 9 1017.3 1017.2 0.0
06/07:30pm 23.7 24.3 16.7 65 4.3 SSW 9 15 5 8 1017.1 1017.0 0.0
06/07:00pm 24.2 24.2 16.2 61 4.9 SSW 11 22 6 12 1016.8 1016.7 0.0
06/06:30pm 24.8 23.8 15.7 57 5.5 SSW 15 26 8 14 1016.6 1016.5 0.0
06/06:00pm 25.7 24.2 15.4 53 6.2 SSW 17 26 9 14 1016.5 1016.4 0.0
06/05:30pm 26.6 24.8 14.4 47 7.3 SW 17 32 9 17 1016.3 1016.2 0.0
06/05:00pm 27.4 24.6 14.4 45 7.8 SSW 22 35 12 19 1016.3 1016.2 0.0
06/04:30pm 28.4 26.2 15.0 44 8.2 SSW 20 33 11 18 1016.2 1016.1 0.0
06/04:00pm 28.8 26.6 15.0 43 8.4 SSW 20 37 11 20 1016.4 1016.3 0.0
06/03:30pm 29.3 27.0 14.7 41 8.9 SW 20 33 11 18 1016.7 1016.6 0.0
06/03:00pm 29.8 28.2 14.0 38 9.5 SSW 15 24 8 13 1016.8 1016.7 0.0
06/02:30pm 30.3 28.3 14.0 37 9.8 SSW 17 26 9 14 1017.3 1017.2 0.0
06/02:00pm 30.9 29.0 14.1 36 10.2 SSW 17 24 9 13 1017.6 1017.5 0.0
06/01:30pm 31.9 30.0 10.6 27 12.3 ESE 11 19 6 10 1018.0 1017.9 0.0
06/01:00pm 31.5 29.7 10.8 28 11.9 E 11 20 6 11 1018.3 1018.2 0.0
06/12:30pm 30.6 29.0 11.5 30 11.1 SE 11 20 6 11 1018.7 1018.6 0.0
06/12:00pm 30.3 28.4 11.8 32 10.8 ESE 13 24 7 13 1019.2 1019.1 0.0
06/11:30am 29.9 28.2 12.3 33 10.3 E 13 24 7 13 1019.7 1019.6 0.0
06/11:00am 28.8 27.3 13.1 38 9.3 ENE 13 28 7 15 1020.2 1020.1 0.0
06/10:30am 28.1 26.5 12.8 38 9.0 ENE 13 24 7 13 1020.7 1020.6 0.0
06/10:00am 27.9 27.0 13.8 42 8.4 E 11 20 6 11 1020.7 1020.6 0.0
06/09:30am 26.4 25.7 14.2 47 7.3 E 11 22 6 12 1020.9 1020.8 0.0
06/09:00am 24.5 23.7 14.0 52 6.2 E 11 20 6 11 1020.9 1020.8 0.0
06/08:30am 22.8 22.2 13.6 56 5.3 ESE 9 15 5 8 1021.0 1020.9 0.0
06/08:00am 22.0 21.9 13.9 60 4.7 E 7 15 4 8 1021.2 1021.1 0.0
06/07:30am 20.9 20.7 13.6 63 4.2 E 7 17 4 9 1021.0 1020.9 0.0
06/07:00am 19.1 18.7 13.1 68 3.4 ESE 7 11 4 6 1021.0 1020.9 0.0
06/06:30am 18.6 18.3 12.6 68 3.4 E 6 13 3 7 1021.0 1020.9 0.0
06/06:00am 18.9 18.0 12.6 67 3.5 E 9 13 5 7 1020.7 1020.6 0.0
06/05:30am 19.2 18.3 12.7 66 3.7 ENE 9 17 5 9 1020.5 1020.4 0.0
06/05:00am 19.5 19.0 12.7 65 3.8 E 7 15 4 8 1020.5 1020.4 0.0
06/04:30am 20.1 19.2 12.6 62 4.2 E 9 19 5 10 1020.3 1020.2 0.0
06/04:00am 20.6 20.1 12.6 60 4.5 ENE 7 15 4 8 1020.0 1019.9 0.0
06/03:30am 20.8 20.3 12.5 59 4.7 ENE 7 15 4 8 1020.2 1020.1 0.0
06/03:00am 21.4 20.5 12.5 57 5.0 E 9 20 5 11 1020.2 1020.1 0.0
06/02:30am 21.9 20.6 12.5 55 5.3 E 11 20 6 11 1020.1 1020.0 0.0
06/02:00am 22.6 20.8 12.0 51 6.0 E 13 24 7 13 1020.0 1019.9 0.0
06/01:30am 23.2 21.8 10.9 46 6.8 ESE 9 22 5 12 1020.2 1020.1 0.0
06/01:00am 23.8 21.9 10.5 43 7.3 E 11 22 6 12 1020.2 1020.1 0.0
06/12:30am 23.8 22.1 9.8 41 7.6 ESE 9 20 5 11 1020.3 1020.2 0.0
06/12:00am 22.1 20.8 9.9 46 6.6 SSE 7 9 4 5 1020.4 1020.3 0.0
 
Date/Time
WST
Temp
°C
App
Temp
°C
Dew
Point
Rel
Hum
%
Delta-T
°C
Wind Press
QNH
hPa
Press
MSL
hPa
Rain
since 9 am
mm
Dir
 
Spd
km/h
Gust
km/h
Spd
kts
Gust
kts
05/11:30pm 22.6 21.5 10.1 45 6.8 SSE 6 9 3 5 1020.3 1020.2 0.0
05/11:00pm 24.1 22.7 9.7 40 7.8 SSE 7 11 4 6 1020.4 1020.3 0.0
05/10:30pm 24.8 23.4 9.5 38 8.4 SE 7 13 4 7 1020.5 1020.4 0.0
05/10:00pm 25.9 23.7 9.3 35 9.1 SE 11 17 6 9 1020.8 1020.7 0.0
05/09:30pm 26.0 24.2 9.4 35 9.1 SE 9 13 5 7 1021.0 1020.9 0.0
05/09:00pm 26.3 24.8 9.2 34 9.3 SE 7 15 4 8 1020.8 1020.7 0.0
05/08:30pm 27.2 25.8 9.5 33 9.8 SE 7 15 4 8 1020.5 1020.4 0.0
05/08:00pm 27.1 26.0 9.9 34 9.6 ESE 6 9 3 5 1020.1 1020.0 0.0
05/07:30pm 28.0 26.7 9.3 31 10.4 ESE 6 11 3 6 1019.7 1019.6 0.0
05/07:00pm 29.5 27.5 8.5 27 11.5 ESE 9 15 5 8 1019.2 1019.1 0.0
05/06:30pm 30.3 27.8 8.1 25 12.2 ESE 11 20 6 11 1019.0 1018.9 0.0
05/06:00pm 31.0 28.6 8.7 25 12.4 ESE 11 20 6 11 1018.8 1018.7 0.0
05/05:30pm 31.9 29.5 8.8 24 12.9 E 11 28 6 15 1018.6 1018.5 0.0
05/05:00pm 31.9 29.3 9.4 25 12.7 ENE 13 24 7 13 1018.5 1018.4 0.0
05/04:30pm 32.2 30.1 8.4 23 13.3 E 9 19 5 10 1018.5 1018.4 0.0
05/04:00pm 32.5 30.4 9.9 25 12.9 SE 11 20 6 11 1018.6 1018.5 0.0
05/03:30pm 32.2 29.4 8.4 23 13.3 E 13 26 7 14 1018.8 1018.7 0.0
05/03:00pm 32.6 30.7 10.6 26 12.7 E 11 20 6 11 1019.2 1019.1 0.0
05/02:30pm 32.0 29.8 9.5 25 12.7 E 11 24 6 13 1019.6 1019.5 0.0
05/02:00pm 31.5 28.6 9.7 26 12.3 ENE 15 30 8 16 1020.1 1020.0 0.0
05/01:30pm 30.6 28.5 11.1 30 11.3 NE 13 28 7 15 1020.7 1020.6 0.0
05/01:00pm 30.5 28.0 12.4 33 10.6 NE 17 26 9 14 1021.0 1020.9 0.0
05/12:30pm 29.5 26.5 10.6 31 10.8 NE 17 33 9 18 1021.5 1021.4 0.0
05/12:00pm 29.1 26.8 11.6 33 10.1 E 15 28 8 15 1022.0 1021.9 0.0
05/11:30am 28.4 25.6 11.5 35 9.7 ENE 17 26 9 14 1022.5 1022.4 0.0
05/11:00am 27.2 24.6 12.0 38 8.7 E 17 24 9 13 1023.0 1022.9 0.0
05/10:30am 26.4 24.0 12.8 43 7.9 ENE 17 30 9 16 1023.4 1023.3 0.0
05/10:00am 25.8 24.0 13.3 46 7.3 ENE 15 30 8 16 1023.6 1023.5 0.0
05/09:30am 24.9 23.3 12.8 47 7.0 ENE 13 26 7 14 1023.7 1023.6 0.0
05/09:00am 23.4 22.4 13.3 53 5.8 E 11 19 6 10 1023.8 1023.7 0.0
05/08:30am 21.9 20.7 12.7 56 5.2 ESE 11 22 6 12 1023.7 1023.6 0.0
05/08:00am 20.8 19.7 13.0 61 4.4 E 11 19 6 10 1023.8 1023.7 0.0
05/07:30am 19.7 18.5 12.7 64 3.9 ESE 11 20 6 11 1023.7 1023.6 0.0
05/07:00am 18.5 17.2 12.5 68 3.3 ESE 11 20 6 11 1023.5 1023.4 0.0
05/06:30am 18.0 16.6 12.2 69 3.2 E 11 20 6 11 1023.2 1023.1 0.0
05/06:00am 18.2 16.8 12.2 68 3.3 E 11 20 6 11 1023.0 1022.9 0.0
05/05:30am 18.3 17.7 12.3 68 3.3 E 7 17 4 9 1022.8 1022.7 0.0
05/05:00am 18.5 17.5 12.3 67 3.4 E 9 19 5 10 1022.6 1022.5 0.0
05/04:30am 18.9 17.9 12.2 65 3.7 ESE 9 17 5 9 1022.4 1022.3 0.0
05/04:00am 19.3 18.3 12.3 64 3.9 ESE 9 17 5 9 1022.3 1022.2 0.0
05/03:30am 19.6 18.3 12.4 63 4.0 ESE 11 22 6 12 1022.1 1022.0 0.0
05/03:00am 20.0 18.3 12.5 62 4.2 ESE 13 22 7 12 1021.8 1021.7 0.0
05/02:30am 20.5 19.3 12.7 61 4.4 E 11 19 6 10 1021.6 1021.5 0.0
05/02:00am 21.3 19.3 12.7 58 4.9 ESE 15 24 8 13 1021.5 1021.4 0.0
05/01:30am 22.3 20.5 12.0 52 5.8 ESE 13 28 7 15 1021.3 1021.2 0.0
05/01:00am 23.1 20.8 11.8 49 6.4 ESE 15 28 8 15 1021.2 1021.1 0.0
05/12:30am 23.9 21.4 11.2 44 7.1 ESE 15 28 8 15 1021.2 1021.1 0.0
05/12:00am 24.2 21.4 11.2 44 7.3 ESE 17 28 9 15 1021.0 1020.9 0.0
 
Date/Time
WST
Temp
°C
App
Temp
°C
Dew
Point
Rel
Hum
%
Delta-T
°C
Wind Press
QNH
hPa
Press
MSL
hPa
Rain
since 9 am
mm
Dir
 
Spd
km/h
Gust
km/h
Spd
kts
Gust
kts
04/11:30pm 24.9 22.5 11.5 43 7.6 ESE 15 30 8 16 1020.9 1020.8 0.0
04/11:00pm 25.6 23.1 11.0 40 8.2 ESE 15 28 8 15 1020.8 1020.7 0.0
04/10:30pm 26.4 23.4 10.5 37 8.9 ESE 17 30 9 16 1020.7 1020.6 0.0
04/10:00pm 26.4 24.7 9.7 35 9.2 SE 9 19 5 10 1020.7 1020.6 0.0
04/09:30pm 26.5 24.8 9.8 35 9.3 SE 9 19 5 10 1020.5 1020.4 0.0
04/09:00pm 26.8 25.5 10.1 35 9.3 SE 7 13 4 7 1020.4 1020.3 0.0
04/08:30pm 27.3 26.0 10.1 34 9.6 SE 7 15 4 8 1020.0 1019.9 0.0
04/08:00pm 27.5 26.2 9.8 33 9.8 SE 7 13 4 7 1019.7 1019.6 0.0
04/07:30pm 27.8 26.7 10.1 33 9.9 SE 6 13 3 7 1019.3 1019.2 0.0
04/07:00pm 29.0 27.9 10.6 32 10.4 ESE 7 15 4 8 1019.1 1019.0 0.0
04/06:30pm 30.1 28.7 9.6 28 11.5 ESE 7 13 4 7 1018.9 1018.8 0.0
04/06:00pm 31.0 29.3 9.8 27 12.0 E 9 20 5 11 1018.7 1018.6 0.0
04/05:30pm 30.4 29.9 13.7 36 10.0 S 9 19 5 10 1018.6 1018.5 0.0
04/05:00pm 31.7 29.9 11.0 28 12.0 SE 11 20 6 11 1018.4 1018.3 0.0
04/04:30pm 31.4 29.2 10.7 28 11.9 SE 13 22 7 12 1018.3 1018.2 0.0
04/04:00pm 32.0 29.8 10.7 27 12.3 SE 13 26 7 14 1018.3 1018.2 0.0
04/03:30pm 31.7 29.6 11.0 28 12.0 SE 13 28 7 15 1018.4 1018.3 0.0
04/03:00pm 31.9 30.2 11.1 28 12.1 E 11 17 6 9 1018.5 1018.4 0.0
04/02:30pm 31.5 30.1 12.3 31 11.3 ESE 11 24 6 13 1018.8 1018.7 0.0
04/02:00pm 30.6 27.8 11.5 30 11.1 ESE 17 28 9 15 1019.1 1019.0 0.0
04/01:30pm 31.4 29.6 12.2 30 11.3 E 13 28 7 15 1019.5 1019.4 0.0
04/01:00pm 31.3 30.6 14.4 35 10.3 SE 11 20 6 11 1019.7 1019.6 0.0
04/12:30pm 30.0 28.6 13.3 36 10.0 ESE 13 20 7 11 1020.1 1020.0 0.0
04/12:00pm 29.2 28.3 13.8 39 9.2 ESE 11 20 6 11 1020.6 1020.5 0.0
04/11:30am 28.2 27.5 14.4 42 8.3 E 11 17 6 9 1021.1 1021.0 0.0
04/11:00am 27.3 26.5 15.0 47 7.4 ENE 13 20 7 11 1021.4 1021.3 0.0
04/10:30am 26.0 25.0 14.5 49 6.9 ENE 13 24 7 13 1021.9 1021.8 0.0
04/10:00am 24.9 23.8 14.4 52 6.2 ESE 13 22 7 12 1022.0 1021.9 0.0
04/09:30am 23.2 21.6 13.9 56 5.4 ESE 15 24 8 13 1022.2 1022.1 0.0
04/09:00am 22.4 21.4 14.5 61 4.6 ESE 13 24 7 13 1022.3 1022.2 0.0
04/08:30am 21.3 20.3 14.5 65 4.0 E 13 26 7 14 1022.4 1022.3 0.0

Other Formats:

Comma delimited format used in spreadsheet applications
http://www.bom.gov.au/fwo/IDW60801/IDW60801.94608.axf

JavaScript Object Notation format (JSON) in row-major order
http://www.bom.gov.au/fwo/IDW60801/IDW60801.94608.json